Catàleg de serveis del Meteocat
Campanya meteocatpedra

Dades de l'estació automàtica Sant Llorenç Savall

?
?
Resum diari 22:00 TU
Dades diàries de l'estació meteorològica
Temperatura mitjana 12.1 °C
Temperatura màxima 17.1 °C 13:55 TU
Temperatura mínima 5.5 °C 5:32 TU
Humitat relativa mitjana 67%
Precipitació acumulada 0.0 mm
Ratxa màxima del vent (10 m) 27.7 km/h - 187º 13:17 TU

El tram horari està expressat en Temps Universal (TU). Cal sumar una hora en horari d'hivern i dues en horari d'estiu per passar a l'hora oficial.

Sant Llorenç Savall

Metadades estació meteorol´gica
Municipi Sant Llorenç Savall
Comarca Vallès Occidental
Altitud 528 m
Data alta 25.03.1998
Estat actual Operativa
Dades de període
Període
TU
TM
°C
TX
°C
TN
°C
HRM
%
PPT
mm
VVM (10 m)
km/h
DVM (10 m)
graus
VVX (10 m)
km/h
00:00 - 00:30 9.8 9.9 9.8 94 0.0 1.4 141 4.7
00:30 - 01:00 9.9 9.9 9.8 93 0.0 1.4 188 9.4
01:00 - 01:30 9.7 9.9 9.2 92 0.0 0.7 128 3.2
01:30 - 02:00 8.8 9.2 8.5 96 0.0 1.4 91 8.3
02:00 - 02:30 9.2 9.3 9.1 94 0.0 1.8 107 10.1
02:30 - 03:00 9.1 9.3 9.0 96 0.0 2.2 147 9.0
03:00 - 03:30 9.4 9.4 9.3 95 0.0 2.5 219 10.1
03:30 - 04:00 9.0 9.3 8.3 95 0.0 0.4 128 5.0
04:00 - 04:30 7.4 8.3 6.9 98 0.0 1.8 51 7.6
04:30 - 05:00 6.5 6.8 6.1 99 0.0 2.5 40 6.1
05:00 - 05:30 5.8 6.1 5.5 100 0.0 2.2 45 5.8
05:30 - 06:00 5.7 6.0 5.5 100 0.0 1.1 51 4.0
06:00 - 06:30 6.6 7.3 6.1 100 0.0 0.4 214 4.0
06:30 - 07:00 8.6 10.3 7.4 93 0.0 0.7 49 5.4
07:00 - 07:30 11.2 12.0 10.5 67 0.0 2.9 187 10.1
07:30 - 08:00 12.4 12.7 12.0 59 0.0 4.0 170 11.9
08:00 - 08:30 12.6 13.0 12.3 59 0.0 4.3 153 16.2
08:30 - 09:00 13.3 13.5 13.0 56 0.0 5.8 147 20.5
09:00 - 09:30 13.1 13.2 13.0 56 0.0 2.9 155 11.2
09:30 - 10:00 13.3 13.9 13.1 56 0.0 3.2 196 11.5
10:00 - 10:30 13.7 14.0 13.6 57 0.0 4.3 194 13.7
10:30 - 11:00 14.0 14.4 13.7 57 0.0 2.5 205 9.4
11:00 - 11:30 14.6 14.9 14.3 50 0.0 4.0 194 15.5
11:30 - 12:00 15.2 15.4 14.9 49 0.0 5.0 134 19.8
12:00 - 12:30 15.4 15.7 15.2 49 0.0 4.7 169 17.6
12:30 - 13:00 16.0 16.4 15.5 48 0.0 7.2 194 23.4
13:00 - 13:30 15.9 16.2 15.5 46 0.0 6.8 186 27.7
13:30 - 14:00 16.3 17.1 15.8 46 0.0 7.9 163 24.5
14:00 - 14:30 16.2 16.5 16.0 45 0.0 5.8 157 18.4
14:30 - 15:00 16.1 16.6 15.7 50 0.0 6.8 208 22.0
15:00 - 15:30 15.3 15.6 15.1 54 0.0 6.8 206 25.2
15:30 - 16:00 15.2 15.4 14.9 53 0.0 6.8 112 22.3
16:00 - 16:30 14.6 14.8 14.5 56 0.0 5.0 106 20.9
16:30 - 17:00 14.8 14.9 14.6 55 0.0 4.0 164 15.5
17:00 - 17:30 14.5 14.6 14.4 54 0.0 3.2 104 10.8
17:30 - 18:00 13.8 14.4 13.4 54 0.0 2.9 151 9.4
18:00 - 18:30 12.9 13.4 12.3 56 0.0 2.5 127 9.7
18:30 - 19:00 11.8 12.3 11.4 59 0.0 1.8 168 9.0
19:00 - 19:30 11.7 11.9 11.2 60 0.0 2.2 60 6.8
19:30 - 20:00 11.8 12.3 11.1 58 0.0 3.6 136 13.3
20:00 - 20:30 12.3 12.6 12.2 53 0.0 4.0 143 15.1
20:30 - 21:00 12.8 13.1 12.6 47 0.0 5.4 133 16.9
21:00 - 21:30 12.8 12.9 12.6 48 0.0 4.3 175 16.9
21:30 - 22:00 12.6 12.8 12.4 52 0.0 4.7 152 15.1
22:00 - 22:30 12.3 12.4 12.2 54 0.0 3.2 145 13.3

Les dades en taronja només han passat un control de qualitat automàtic. Resta pendent la seva validació definitiva.